createdAt,value
2023-08-08T00:01:45.905Z,100968.31
2023-08-08T00:04:17.680Z,100973.50
2023-08-08T00:06:49.402Z,100993.25
2023-08-08T00:09:21.219Z,100993.09
2023-08-08T00:11:52.919Z,100990.06
2023-08-08T00:14:25.436Z,100991.94
2023-08-08T00:16:57.224Z,100991.81
2023-08-08T00:19:28.983Z,100999.88
2023-08-08T00:22:00.776Z,101013.06
2023-08-08T00:24:32.887Z,101005.19
2023-08-08T00:27:04.913Z,100978.59
2023-08-08T00:29:36.477Z,100964.97
2023-08-08T00:32:08.215Z,100967.72
2023-08-08T00:34:39.735Z,100965.56
2023-08-08T00:37:11.454Z,100966.38
2023-08-08T00:39:47.052Z,100968.78
2023-08-08T00:42:18.695Z,100968.94
2023-08-08T00:44:50.255Z,100964.53
2023-08-08T00:47:22.436Z,100957.09
2023-08-08T00:49:53.950Z,100951.84
2023-08-08T00:52:26.557Z,100948.13
2023-08-08T00:54:58.598Z,100950.00
2023-08-08T00:57:30.250Z,100957.44
2023-08-08T01:00:02.030Z,100948.97
2023-08-08T01:02:33.860Z,100943.22
2023-08-08T01:05:06.279Z,100942.19
2023-08-08T01:08:00.254Z,100930.44
2023-08-08T01:10:37.315Z,100940.72
2023-08-08T01:13:18.236Z,100939.72
2023-08-08T01:15:50.926Z,100946.91
2023-08-08T01:18:23.014Z,100939.44
2023-08-08T01:20:55.715Z,100926.94
2023-08-08T01:23:35.657Z,100927.47
2023-08-08T01:26:07.961Z,100919.03
2023-08-08T01:28:40.570Z,100918.72
2023-08-08T01:31:12.260Z,100913.28
2023-08-08T01:33:43.903Z,100928.44
2023-08-08T01:36:23.792Z,100928.53
2023-08-08T01:39:00.907Z,100927.78
2023-08-08T01:41:39.396Z,100930.06
2023-08-08T01:44:11.954Z,100935.53
2023-08-08T01:46:43.802Z,100918.00
2023-08-08T01:49:15.450Z,100925.88
2023-08-08T01:51:47.286Z,100926.59
2023-08-08T01:54:19.719Z,100913.97
2023-08-08T01:56:51.416Z,100914.41
2023-08-08T01:59:23.648Z,100906.72
2023-08-08T02:01:55.343Z,100911.28
2023-08-08T02:04:27.032Z,100906.16
2023-08-08T02:06:58.617Z,100913.63
2023-08-08T02:09:30.186Z,100902.16
2023-08-08T02:12:02.032Z,100906.59
2023-08-08T02:14:33.780Z,100899.75
2023-08-08T02:17:05.336Z,100895.06
2023-08-08T02:19:36.856Z,100901.38
2023-08-08T02:22:08.471Z,100892.66
2023-08-08T02:24:40.183Z,100891.94
2023-08-08T02:27:13.578Z,100902.97
2023-08-08T02:29:45.113Z,100900.09
2023-08-08T02:32:16.697Z,100892.50
2023-08-08T02:34:48.586Z,100886.69
2023-08-08T02:37:20.171Z,100895.34
2023-08-08T02:39:51.909Z,100894.19
2023-08-08T02:42:23.480Z,100894.06
2023-08-08T02:44:55.057Z,100890.47
2023-08-08T02:47:26.785Z,100885.47
2023-08-08T02:49:58.465Z,100895.50
2023-08-08T02:52:30.008Z,100894.34
2023-08-08T02:55:03.184Z,100887.59
2023-08-08T02:57:34.727Z,100872.63
2023-08-08T03:00:07.206Z,100877.63
2023-08-08T03:02:38.830Z,100882.50
2023-08-08T03:05:10.536Z,100871.41
2023-08-08T03:07:42.101Z,100877.47
2023-08-08T03:10:14.014Z,100871.59
2023-08-08T03:12:45.549Z,100864.19
2023-08-08T03:15:17.190Z,100866.81
2023-08-08T03:17:48.874Z,100862.22
2023-08-08T03:20:20.680Z,100856.78
2023-08-08T03:22:52.262Z,100857.94
2023-08-08T03:25:23.877Z,100856.78
2023-08-08T03:27:55.412Z,100851.91
2023-08-08T03:30:26.958Z,100852.44
2023-08-08T03:32:58.725Z,100857.19
2023-08-08T03:35:30.345Z,100858.97
2023-08-08T03:38:01.991Z,100846.81
2023-08-08T03:40:34.001Z,100850.53
2023-08-08T03:43:05.797Z,100857.38
2023-08-08T03:45:37.538Z,100852.81
2023-08-08T03:48:09.086Z,100855.06
2023-08-08T03:50:40.643Z,100845.44
2023-08-08T03:53:12.182Z,100853.63
2023-08-08T03:55:43.714Z,100844.88
2023-08-08T03:58:15.341Z,100842.31
2023-08-08T04:00:47.677Z,100841.63
2023-08-08T04:03:19.562Z,100844.03
2023-08-08T04:05:51.247Z,100835.56
2023-08-08T04:08:23.470Z,100848.25
2023-08-08T04:10:55.666Z,100838.47
2023-08-08T04:13:27.353Z,100836.44
2023-08-08T04:15:58.953Z,100830.66
2023-08-08T04:18:30.565Z,100832.38
2023-08-08T04:21:02.114Z,100839.16
2023-08-08T04:23:33.736Z,100836.59
2023-08-08T04:26:05.271Z,100839.00
2023-08-08T04:28:36.878Z,100833.53
2023-08-08T04:31:08.505Z,100822.03
2023-08-08T04:33:40.231Z,100821.88
2023-08-08T04:36:11.726Z,100817.00
2023-08-08T04:38:43.603Z,100823.81
2023-08-08T04:41:15.260Z,100824.16
2023-08-08T04:43:46.965Z,100812.69
2023-08-08T04:46:18.680Z,100809.66
2023-08-08T04:48:50.317Z,100815.97
2023-08-08T04:51:21.947Z,100819.63
2023-08-08T04:53:53.535Z,100815.50
2023-08-08T04:56:25.223Z,100814.00
2023-08-08T04:58:56.826Z,100815.88
2023-08-08T05:01:29.736Z,100811.13
2023-08-08T05:04:01.335Z,100811.13
2023-08-08T05:06:33.288Z,100815.28
2023-08-08T05:09:04.846Z,100814.06
2023-08-08T05:11:37.124Z,100822.44
2023-08-08T05:14:08.724Z,100811.81
2023-08-08T05:16:40.437Z,100802.56
2023-08-08T05:19:12.078Z,100806.28
2023-08-08T05:21:44.115Z,100807.00
2023-08-08T05:24:15.653Z,100802.94
2023-08-08T05:26:47.291Z,100809.25
2023-08-08T05:29:18.837Z,100814.13
2023-08-08T05:31:50.604Z,100802.97
2023-08-08T05:34:24.482Z,100818.34
2023-08-08T05:37:10.258Z,100802.41
2023-08-08T05:39:47.624Z,100796.28
2023-08-08T05:42:19.599Z,100802.78
2023-08-08T05:44:51.341Z,100807.56
2023-08-08T05:47:22.866Z,100800.53
2023-08-08T05:49:54.465Z,100807.81
2023-08-08T05:52:26.040Z,100816.06
2023-08-08T05:55:00.269Z,100797.97
2023-08-08T05:57:31.869Z,100789.66
2023-08-08T06:00:04.517Z,100797.13
2023-08-08T06:02:36.222Z,100787.00
2023-08-08T06:05:08.613Z,100800.78
2023-08-08T06:07:40.410Z,100777.44
2023-08-08T06:10:11.971Z,100794.25
2023-08-08T06:12:43.655Z,100782.88
2023-08-08T06:15:15.263Z,100785.16
2023-08-08T06:17:46.888Z,100795.50
2023-08-08T06:20:18.512Z,100801.19
2023-08-08T06:22:50.173Z,100805.72
2023-08-08T06:25:21.837Z,100799.13
2023-08-08T06:27:53.486Z,100796.75
2023-08-08T06:30:25.141Z,100801.28
2023-08-08T06:32:56.881Z,100810.97
2023-08-08T06:35:28.521Z,100804.47
2023-08-08T06:38:00.095Z,100814.53
2023-08-08T06:40:31.697Z,100811.38
2023-08-08T06:43:03.292Z,100809.00
2023-08-08T06:45:35.071Z,100810.47
2023-08-08T06:48:07.172Z,100821.03
2023-08-08T06:50:38.823Z,100827.81
2023-08-08T06:53:10.415Z,100815.19
2023-08-08T06:55:42.054Z,100812.72
2023-08-08T06:58:13.686Z,100816.75
2023-08-08T07:00:46.173Z,100827.00
2023-08-08T07:03:18.050Z,100826.38
2023-08-08T07:05:53.037Z,100809.38
2023-08-08T07:08:24.997Z,100820.41
2023-08-08T07:10:58.560Z,100795.53
2023-08-08T07:13:30.132Z,100807.78
2023-08-08T07:16:02.289Z,100810.50
2023-08-08T07:18:34.242Z,100808.97
2023-08-08T07:21:07.109Z,100810.19
2023-08-08T07:23:38.775Z,100799.84
2023-08-08T07:26:10.352Z,100798.53
2023-08-08T07:28:42.004Z,100796.19
2023-08-08T07:31:13.618Z,100794.38
2023-08-08T07:33:45.164Z,100806.44
2023-08-08T07:36:16.770Z,100793.00
2023-08-08T07:38:48.295Z,100791.19
2023-08-08T07:41:19.855Z,100786.63
2023-08-08T07:43:51.380Z,100785.09
2023-08-08T07:46:23.821Z,100792.56
2023-08-08T07:48:55.352Z,100779.56
2023-08-08T07:51:26.921Z,100780.78
2023-08-08T07:53:59.255Z,100783.34
2023-08-08T07:56:30.939Z,100778.97
2023-08-08T07:59:02.800Z,100783.78
2023-08-08T08:01:34.433Z,100788.59
2023-08-08T08:04:06.102Z,100794.78
2023-08-08T08:06:37.899Z,100781.44
2023-08-08T08:09:09.900Z,100786.63
2023-08-08T08:11:41.587Z,100776.56
2023-08-08T08:14:13.337Z,100788.50
2023-08-08T08:16:46.613Z,100791.28
2023-08-08T08:19:18.280Z,100792.47
2023-08-08T08:21:50.127Z,100798.19
2023-08-08T08:24:21.814Z,100793.31
2023-08-08T08:26:53.354Z,100792.94
2023-08-08T08:29:25.004Z,100809.94
2023-08-08T08:31:56.581Z,100803.81
2023-08-08T08:34:28.147Z,100790.69
2023-08-08T08:36:59.655Z,100796.69
2023-08-08T08:39:31.216Z,100804.91
2023-08-08T08:42:06.281Z,100782.75
2023-08-08T08:44:38.705Z,100796.56
2023-08-08T08:47:13.743Z,100804.72
2023-08-08T08:49:46.735Z,100781.06
2023-08-08T08:52:18.503Z,100782.22
2023-08-08T08:54:52.324Z,100780.59
2023-08-08T08:57:27.175Z,100786.47
2023-08-08T08:59:59.533Z,100789.03
2023-08-08T09:02:31.160Z,100792.28
2023-08-08T09:05:04.956Z,100787.28
2023-08-08T09:07:37.407Z,100796.31
2023-08-08T09:10:09.021Z,100779.41
2023-08-08T09:12:40.602Z,100778.88
2023-08-08T09:15:13.112Z,100779.84
2023-08-08T09:17:48.577Z,100762.81
2023-08-08T09:20:21.158Z,100767.94
2023-08-08T09:22:53.782Z,100762.78
2023-08-08T09:25:26.971Z,100775.09
2023-08-08T09:27:58.568Z,100766.53
2023-08-08T09:30:32.205Z,100762.91
2023-08-08T09:33:05.671Z,100772.53
2023-08-08T09:35:40.224Z,100766.19
2023-08-08T09:38:11.854Z,100762.25
2023-08-08T09:40:43.562Z,100758.28
2023-08-08T09:43:15.217Z,100753.66
2023-08-08T09:45:49.038Z,100757.25
2023-08-08T09:48:21.052Z,100752.34
2023-08-08T09:50:52.604Z,100760.75
2023-08-08T09:53:24.594Z,100758.19
2023-08-08T09:55:57.411Z,100754.66
2023-08-08T09:58:29.990Z,100753.63
2023-08-08T10:01:02.101Z,100759.78
2023-08-08T10:03:34.509Z,100749.91
2023-08-08T10:06:06.521Z,100738.97
2023-08-08T10:08:38.731Z,100739.53
2023-08-08T10:11:12.775Z,100717.78
2023-08-08T10:13:52.003Z,100726.88
2023-08-08T10:16:24.301Z,100721.34
2023-08-08T10:18:59.119Z,100727.31
2023-08-08T10:21:41.816Z,100711.66
2023-08-08T10:24:13.496Z,100717.00
2023-08-08T10:26:55.241Z,100716.19
2023-08-08T10:29:28.604Z,100711.75
2023-08-08T10:32:05.482Z,100715.91
2023-08-08T10:34:41.670Z,100736.78
2023-08-08T10:37:15.901Z,100738.91
2023-08-08T10:40:01.756Z,100744.63
2023-08-08T10:42:34.643Z,100744.91
2023-08-08T10:45:06.990Z,100747.00
2023-08-08T10:47:39.169Z,100746.69
2023-08-08T10:50:16.104Z,100734.91
2023-08-08T10:52:51.148Z,100731.84
2023-08-08T10:55:28.564Z,100722.00
2023-08-08T10:58:06.644Z,100733.75
2023-08-08T11:00:40.876Z,100765.00
2023-08-08T11:03:12.792Z,100758.97
2023-08-08T11:05:52.356Z,100769.94
2023-08-08T11:08:24.588Z,100756.94
2023-08-08T11:10:56.192Z,100749.06
2023-08-08T11:13:28.002Z,100744.84
2023-08-08T11:15:59.930Z,100734.91
2023-08-08T11:18:31.867Z,100735.59
2023-08-08T11:21:18.211Z,100736.78
2023-08-08T11:23:50.569Z,100737.66
2023-08-08T11:26:22.157Z,100735.25
2023-08-08T11:28:54.327Z,100720.09
2023-08-08T11:31:26.172Z,100725.53
2023-08-08T11:34:00.215Z,100726.56
2023-08-08T11:36:36.216Z,100714.25
2023-08-08T11:39:10.249Z,100712.16
2023-08-08T11:41:42.427Z,100701.06
2023-08-08T11:44:14.554Z,100702.28
2023-08-08T11:46:47.658Z,100695.75
2023-08-08T11:49:19.670Z,100695.94
2023-08-08T11:51:51.405Z,100707.94
2023-08-08T11:54:23.011Z,100704.25
2023-08-08T11:56:54.997Z,100694.13
2023-08-08T11:59:26.781Z,100707.97
2023-08-08T12:01:58.801Z,100723.50
2023-08-08T12:04:30.745Z,100726.19
2023-08-08T12:07:04.955Z,100714.72
2023-08-08T12:09:38.105Z,100705.22
2023-08-08T12:12:11.069Z,100708.91
2023-08-08T12:14:51.788Z,100717.75
2023-08-08T12:17:28.750Z,100717.38
2023-08-08T12:20:01.316Z,100722.50
2023-08-08T12:22:33.802Z,100706.94
2023-08-08T12:25:06.178Z,100709.28
2023-08-08T12:27:37.788Z,100709.91
2023-08-08T12:30:09.892Z,100698.88
2023-08-08T12:32:41.431Z,100701.97
2023-08-08T12:35:13.248Z,100701.59
2023-08-08T12:37:44.959Z,100707.63
2023-08-08T12:40:16.572Z,100713.16
2023-08-08T12:42:49.210Z,100705.63
2023-08-08T12:45:20.822Z,100715.47
2023-08-08T12:47:52.487Z,100712.72
2023-08-08T12:50:24.603Z,100734.28
2023-08-08T12:52:56.172Z,100710.94
2023-08-08T12:55:27.800Z,100719.66
2023-08-08T12:57:59.689Z,100731.59
2023-08-08T13:00:31.454Z,100738.09
2023-08-08T13:03:03.540Z,100739.22
2023-08-08T13:05:35.238Z,100764.13
2023-08-08T13:08:07.004Z,100751.78
2023-08-08T13:10:38.630Z,100777.03
2023-08-08T13:13:10.569Z,100776.16
2023-08-08T13:15:42.217Z,100775.91
2023-08-08T13:18:13.833Z,100781.06
2023-08-08T13:20:45.450Z,100796.16
2023-08-08T13:23:17.080Z,100793.63
2023-08-08T13:25:50.200Z,100795.25
2023-08-08T13:28:21.810Z,100807.19
2023-08-08T13:30:53.406Z,100800.88
2023-08-08T13:33:25.316Z,100789.31
2023-08-08T13:35:56.877Z,100808.72
2023-08-08T13:38:28.790Z,100820.56
2023-08-08T13:41:01.421Z,100803.53
2023-08-08T13:43:34.555Z,100817.16
2023-08-08T13:46:08.962Z,100828.25
2023-08-08T13:48:41.214Z,100830.25
2023-08-08T13:51:12.886Z,100808.91
2023-08-08T13:53:46.021Z,100825.34
2023-08-08T13:56:18.563Z,100819.44
2023-08-08T13:58:50.385Z,100812.91
2023-08-08T14:01:22.343Z,100809.84
2023-08-08T14:03:54.742Z,100805.53
2023-08-08T14:06:26.601Z,100791.91
2023-08-08T14:08:58.396Z,100791.22
2023-08-08T14:11:30.053Z,100788.69
2023-08-08T14:14:01.656Z,100791.13
2023-08-08T14:16:33.819Z,100790.06
2023-08-08T14:19:05.690Z,100796.66
2023-08-08T14:21:37.285Z,100793.22
2023-08-08T14:24:08.965Z,100795.44
2023-08-08T14:26:40.541Z,100788.09
2023-08-08T14:29:12.115Z,100792.13
2023-08-08T14:31:58.848Z,100781.81
2023-08-08T14:34:34.113Z,100794.31
2023-08-08T14:37:05.875Z,100792.50
2023-08-08T14:39:37.777Z,100791.34
2023-08-08T14:42:09.506Z,100805.53
2023-08-08T14:44:41.163Z,100807.91
2023-08-08T14:47:12.969Z,100797.66
2023-08-08T14:49:44.538Z,100808.91
2023-08-08T14:52:16.972Z,100853.69
2023-08-08T14:54:48.601Z,100854.63
2023-08-08T14:57:20.290Z,100868.16
2023-08-08T15:02:24.564Z,100875.13
2023-08-08T15:04:58.236Z,100874.94
2023-08-08T15:07:30.036Z,100890.81
2023-08-08T15:10:01.679Z,100886.69
2023-08-08T15:12:33.247Z,100865.81
2023-08-08T15:15:06.606Z,100871.59
2023-08-08T15:17:38.659Z,100879.16
2023-08-08T15:20:12.196Z,100888.25
2023-08-08T15:22:44.017Z,100884.53
2023-08-08T15:25:16.005Z,100884.19
2023-08-08T15:27:47.907Z,100877.34
2023-08-08T15:30:19.526Z,100881.09
2023-08-08T15:32:51.408Z,100874.94
2023-08-08T15:35:23.125Z,100885.03
2023-08-08T15:37:54.981Z,100881.94
2023-08-08T15:40:27.266Z,100882.78
2023-08-08T15:42:58.854Z,100873.56
2023-08-08T15:45:30.562Z,100886.06
2023-08-08T15:48:02.157Z,100911.16
2023-08-08T15:50:33.935Z,100906.53
2023-08-08T15:53:06.070Z,100909.94
2023-08-08T15:55:38.289Z,100910.91
2023-08-08T15:58:10.993Z,100901.16
2023-08-08T16:00:42.721Z,100898.34
2023-08-08T16:03:14.367Z,100928.47
2023-08-08T16:05:45.980Z,100913.38
2023-08-08T16:08:18.642Z,100913.69
2023-08-08T16:10:51.061Z,100914.19
2023-08-08T16:13:23.148Z,100914.25
2023-08-08T16:15:54.785Z,100914.69
2023-08-08T16:18:26.380Z,100908.00
2023-08-08T16:20:57.999Z,100915.16
2023-08-08T16:23:29.631Z,100915.38
2023-08-08T16:26:01.253Z,100928.38
2023-08-08T16:28:33.455Z,100927.88
2023-08-08T16:31:05.262Z,100919.53
2023-08-08T16:33:37.020Z,100930.47
2023-08-08T16:36:08.963Z,100934.53
2023-08-08T16:38:40.601Z,100927.41
2023-08-08T16:41:12.242Z,100929.13
2023-08-08T16:43:44.039Z,100930.31
2023-08-08T16:46:15.802Z,100933.72
2023-08-08T16:48:47.681Z,100928.63
2023-08-08T16:51:19.862Z,100923.81
2023-08-08T16:53:51.823Z,100921.25
2023-08-08T16:56:23.459Z,100925.88
2023-08-08T16:58:55.106Z,100922.44
2023-08-08T17:01:27.148Z,100924.34
2023-08-08T17:03:58.767Z,100926.38
2023-08-08T17:06:32.023Z,100927.75
2023-08-08T17:09:03.830Z,100940.41
2023-08-08T17:11:35.639Z,100925.19
2023-08-08T17:14:09.651Z,100922.09
2023-08-08T17:16:41.704Z,100926.84
2023-08-08T17:19:13.352Z,100921.88
2023-08-08T17:21:45.025Z,100931.94
2023-08-08T17:24:17.917Z,100937.22
2023-08-08T17:26:49.780Z,100937.00
2023-08-08T17:29:21.392Z,100934.25
2023-08-08T17:31:53.029Z,100927.78
2023-08-08T17:34:24.693Z,100943.28
2023-08-08T17:36:56.436Z,100961.41
2023-08-08T17:39:28.035Z,100951.06
2023-08-08T17:42:00.226Z,100938.16
2023-08-08T17:44:32.612Z,100934.19
2023-08-08T17:47:04.753Z,100939.75
2023-08-08T17:49:46.820Z,100937.41
2023-08-08T17:52:19.076Z,100937.13
2023-08-08T17:54:50.647Z,100930.38
2023-08-08T17:57:22.304Z,100929.38
2023-08-08T17:59:53.870Z,100921.84
2023-08-08T18:02:26.465Z,100921.13
2023-08-08T18:04:58.058Z,100918.88
2023-08-08T18:07:29.795Z,100921.94
2023-08-08T18:10:01.508Z,100918.34
2023-08-08T18:12:33.245Z,100931.50
2023-08-08T18:15:05.204Z,100927.44
2023-08-08T18:17:36.868Z,100918.38
2023-08-08T18:20:10.468Z,100923.53
2023-08-08T18:22:42.133Z,100922.53
2023-08-08T18:25:14.402Z,100927.31
2023-08-08T18:27:46.596Z,100934.66
2023-08-08T18:30:19.125Z,100931.50
2023-08-08T18:32:51.682Z,100924.66
2023-08-08T18:35:23.677Z,100939.00
2023-08-08T18:37:55.291Z,100934.91
2023-08-08T18:40:26.933Z,100930.81
2023-08-08T18:42:58.533Z,100936.53
2023-08-08T18:45:30.498Z,100938.28
2023-08-08T18:48:02.221Z,100941.66
2023-08-08T18:50:34.130Z,100937.38
2023-08-08T18:53:07.259Z,100923.00
2023-08-08T18:55:38.970Z,100929.00
2023-08-08T18:58:10.709Z,100927.44
2023-08-08T19:00:42.429Z,100928.47
2023-08-08T19:03:15.399Z,100931.56
2023-08-08T19:05:47.218Z,100937.72
2023-08-08T19:08:18.910Z,100934.81
2023-08-08T19:10:50.746Z,100936.53
2023-08-08T19:13:22.536Z,100940.28
2023-08-08T19:15:54.305Z,100933.44
2023-08-08T19:18:26.128Z,100938.06
2023-08-08T19:20:57.891Z,100938.91
2023-08-08T19:23:29.708Z,100948.13
2023-08-08T19:26:02.399Z,100949.50
2023-08-08T19:28:34.128Z,100944.53
2023-08-08T19:31:05.909Z,100951.50
2023-08-08T19:33:38.409Z,100950.34
2023-08-08T19:36:11.385Z,100945.31
2023-08-08T19:38:42.943Z,100946.06
2023-08-08T19:41:14.613Z,100941.38
2023-08-08T19:43:46.354Z,100942.38
2023-08-08T19:46:18.064Z,100946.63
2023-08-08T19:48:49.895Z,100946.78
2023-08-08T19:51:21.973Z,100941.94
2023-08-08T19:53:53.643Z,100953.88
2023-08-08T19:56:25.332Z,100954.31
2023-08-08T19:58:57.085Z,100959.06
2023-08-08T20:01:29.862Z,100953.78
2023-08-08T20:04:01.886Z,100959.53
2023-08-08T20:06:33.664Z,100957.28
2023-08-08T20:09:05.548Z,100953.84
2023-08-08T20:11:38.926Z,100946.13
2023-08-08T20:14:11.145Z,100945.72
2023-08-08T20:16:43.020Z,100939.72
2023-08-08T20:19:20.063Z,100941.00
2023-08-08T20:21:51.888Z,100949.03
2023-08-08T20:24:23.547Z,100951.63
2023-08-08T20:26:55.410Z,100955.38
2023-08-08T20:29:27.272Z,100957.94
2023-08-08T20:31:58.863Z,100949.75
2023-08-08T20:34:31.606Z,100964.69
2023-08-08T20:37:04.901Z,100959.09
2023-08-08T20:39:36.809Z,100962.38
2023-08-08T20:42:08.449Z,100963.84
2023-08-08T20:44:40.019Z,100962.81
2023-08-08T20:47:11.663Z,100968.59
2023-08-08T20:49:43.299Z,100961.59
2023-08-08T20:52:14.810Z,100954.72
2023-08-08T20:54:46.427Z,100970.38
2023-08-08T20:57:18.153Z,100960.78
2023-08-08T20:59:49.740Z,100962.69
2023-08-08T21:02:21.473Z,100970.06
2023-08-08T21:04:53.371Z,100962.94
2023-08-08T21:07:25.324Z,100965.88
2023-08-08T21:09:56.865Z,100971.19
2023-08-08T21:12:28.469Z,100972.06
2023-08-08T21:15:01.212Z,100967.47
2023-08-08T21:17:33.404Z,100971.19
2023-08-08T21:20:05.763Z,100973.06
2023-08-08T21:22:37.357Z,100980.94
2023-08-08T21:25:09.429Z,100972.63
2023-08-08T21:27:41.889Z,100980.06
2023-08-08T21:30:13.596Z,100975.78
2023-08-08T21:32:45.356Z,100981.28
2023-08-08T21:35:16.965Z,100969.53
2023-08-08T21:37:48.649Z,100969.72
2023-08-08T21:40:20.322Z,100970.75
2023-08-08T21:42:52.900Z,100978.78
2023-08-08T21:45:24.696Z,100973.06
2023-08-08T21:47:58.788Z,100977.81
2023-08-08T21:50:31.468Z,100970.22
2023-08-08T21:53:03.197Z,100976.03
2023-08-08T21:55:35.046Z,100971.06
2023-08-08T21:58:07.188Z,100973.78
2023-08-08T22:00:39.223Z,100969.34
2023-08-08T22:03:10.845Z,100965.63
2023-08-08T22:05:42.706Z,100965.78
2023-08-08T22:08:14.330Z,100961.19
2023-08-08T22:10:45.982Z,100965.03
2023-08-08T22:13:17.629Z,100963.63
2023-08-08T22:15:49.288Z,100958.19
2023-08-08T22:18:21.794Z,100964.47
2023-08-08T22:20:53.668Z,100960.59
2023-08-08T22:23:25.326Z,100956.00
2023-08-08T22:25:56.934Z,100965.88
2023-08-08T22:28:28.672Z,100972.47
2023-08-08T22:31:00.231Z,100970.91
2023-08-08T22:33:31.863Z,100968.47
2023-08-08T22:36:03.720Z,100978.94
2023-08-08T22:38:35.373Z,100977.22
2023-08-08T22:41:06.966Z,100968.22
2023-08-08T22:43:38.728Z,100978.50
2023-08-08T22:46:10.340Z,100969.63
2023-08-08T22:48:41.962Z,100969.34
2023-08-08T22:51:13.514Z,100961.75
2023-08-08T22:53:45.179Z,100972.47
2023-08-08T22:56:16.824Z,100974.03
2023-08-08T22:58:48.462Z,100971.59
2023-08-08T23:01:20.013Z,100959.88
2023-08-08T23:03:51.703Z,100961.13
2023-08-08T23:06:23.297Z,100951.88
2023-08-08T23:08:54.917Z,100958.16
2023-08-08T23:11:26.459Z,100964.84
2023-08-08T23:13:58.033Z,100959.72
2023-08-08T23:16:29.564Z,100969.88
2023-08-08T23:19:01.234Z,100964.69
2023-08-08T23:21:32.824Z,100973.00
2023-08-08T23:24:04.662Z,100972.44
2023-08-08T23:26:39.684Z,100971.84
2023-08-08T23:29:11.294Z,100973.53
2023-08-08T23:31:42.898Z,100976.13
2023-08-08T23:34:14.518Z,100984.41
2023-08-08T23:36:46.153Z,100974.41
2023-08-08T23:39:17.738Z,100975.69
2023-08-08T23:41:49.428Z,100987.72
2023-08-08T23:44:21.259Z,100978.97
2023-08-08T23:46:52.837Z,100976.25
2023-08-08T23:49:24.460Z,100978.25
2023-08-08T23:51:56.089Z,100970.09
2023-08-08T23:54:27.669Z,100978.25
2023-08-08T23:56:59.264Z,100980.25
2023-08-08T23:59:30.901Z,100976.78
